sensor_id;sensor_type;location;lat;lon;timestamp;P1;durP1;ratioP1;P2;durP2;ratioP2
11121;SDS011;5615;49.304;10.576;2023-06-10T00:00:45;7.88;;;7.10;;
11121;SDS011;5615;49.304;10.576;2023-06-10T00:03:11;8.15;;;7.32;;
11121;SDS011;5615;49.304;10.576;2023-06-10T00:05:39;10.25;;;7.00;;
11121;SDS011;5615;49.304;10.576;2023-06-10T00:08:06;8.93;;;8.13;;
11121;SDS011;5615;49.304;10.576;2023-06-10T00:10:34;9.53;;;8.03;;
11121;SDS011;5615;49.304;10.576;2023-06-10T00:13:01;9.83;;;8.67;;
11121;SDS011;5615;49.304;10.576;2023-06-10T00:15:29;9.20;;;7.95;;
11121;SDS011;5615;49.304;10.576;2023-06-10T00:17:55;9.03;;;8.13;;
11121;SDS011;5615;49.304;10.576;2023-06-10T00:20:22;10.13;;;8.47;;
11121;SDS011;5615;49.304;10.576;2023-06-10T00:22:49;8.27;;;7.53;;
11121;SDS011;5615;49.304;10.576;2023-06-10T00:25:16;8.57;;;7.70;;
11121;SDS011;5615;49.304;10.576;2023-06-10T00:27:44;9.00;;;8.00;;
11121;SDS011;5615;49.304;10.576;2023-06-10T00:30:11;7.77;;;7.07;;
11121;SDS011;5615;49.304;10.576;2023-06-10T00:32:38;8.50;;;7.60;;
11121;SDS011;5615;49.304;10.576;2023-06-10T00:35:05;8.47;;;7.63;;
11121;SDS011;5615;49.304;10.576;2023-06-10T00:37:32;9.73;;;7.60;;
11121;SDS011;5615;49.304;10.576;2023-06-10T00:39:59;8.30;;;7.50;;
11121;SDS011;5615;49.304;10.576;2023-06-10T00:42:26;8.77;;;7.87;;
11121;SDS011;5615;49.304;10.576;2023-06-10T00:44:54;8.60;;;7.80;;
11121;SDS011;5615;49.304;10.576;2023-06-10T00:47:21;8.87;;;7.73;;
11121;SDS011;5615;49.304;10.576;2023-06-10T00:49:48;8.83;;;7.93;;
11121;SDS011;5615;49.304;10.576;2023-06-10T00:52:16;10.50;;;8.40;;
11121;SDS011;5615;49.304;10.576;2023-06-10T00:54:44;8.53;;;7.70;;
11121;SDS011;5615;49.304;10.576;2023-06-10T00:57:11;9.40;;;8.47;;
11121;SDS011;5615;49.304;10.576;2023-06-10T00:59:39;9.80;;;8.33;;
11121;SDS011;5615;49.304;10.576;2023-06-10T01:02:07;9.17;;;8.27;;
11121;SDS011;5615;49.304;10.576;2023-06-10T01:04:34;8.77;;;7.97;;
11121;SDS011;5615;49.304;10.576;2023-06-10T01:07:05;8.73;;;7.90;;
11121;SDS011;5615;49.304;10.576;2023-06-10T01:09:42;8.73;;;7.93;;
11121;SDS011;5615;49.304;10.576;2023-06-10T01:12:16;9.23;;;8.33;;
11121;SDS011;5615;49.304;10.576;2023-06-10T01:14:52;10.83;;;8.30;;
11121;SDS011;5615;49.304;10.576;2023-06-10T01:17:21;10.40;;;8.70;;
11121;SDS011;5615;49.304;10.576;2023-06-10T01:19:52;10.70;;;9.60;;
11121;SDS011;5615;49.304;10.576;2023-06-10T01:22:22;11.47;;;9.20;;
11121;SDS011;5615;49.304;10.576;2023-06-10T01:24:49;9.97;;;9.03;;
11121;SDS011;5615;49.304;10.576;2023-06-10T01:27:16;10.33;;;9.33;;
11121;SDS011;5615;49.304;10.576;2023-06-10T01:29:48;11.80;;;8.60;;
11121;SDS011;5615;49.304;10.576;2023-06-10T01:32:22;9.73;;;8.83;;
11121;SDS011;5615;49.304;10.576;2023-06-10T01:34:53;10.53;;;8.73;;
11121;SDS011;5615;49.304;10.576;2023-06-10T01:37:23;12.30;;;9.10;;
11121;SDS011;5615;49.304;10.576;2023-06-10T01:39:52;13.90;;;9.43;;
11121;SDS011;5615;49.304;10.576;2023-06-10T01:42:22;10.10;;;8.97;;
11121;SDS011;5615;49.304;10.576;2023-06-10T01:44:49;10.97;;;9.23;;
11121;SDS011;5615;49.304;10.576;2023-06-10T01:47:16;9.83;;;9.00;;
11121;SDS011;5615;49.304;10.576;2023-06-10T01:49:43;10.50;;;9.40;;
11121;SDS011;5615;49.304;10.576;2023-06-10T01:52:09;10.93;;;8.93;;
11121;SDS011;5615;49.304;10.576;2023-06-10T01:54:37;9.97;;;8.97;;
11121;SDS011;5615;49.304;10.576;2023-06-10T01:57:04;10.67;;;9.30;;
11121;SDS011;5615;49.304;10.576;2023-06-10T01:59:31;11.20;;;9.20;;
11121;SDS011;5615;49.304;10.576;2023-06-10T02:01:58;11.27;;;9.23;;
11121;SDS011;5615;49.304;10.576;2023-06-10T02:04:25;12.07;;;9.40;;
11121;SDS011;5615;49.304;10.576;2023-06-10T02:06:51;12.57;;;8.50;;
11121;SDS011;5615;49.304;10.576;2023-06-10T02:09:18;9.77;;;8.87;;
11121;SDS011;5615;49.304;10.576;2023-06-10T02:11:46;10.27;;;9.37;;
11121;SDS011;5615;49.304;10.576;2023-06-10T02:14:12;10.50;;;8.93;;
11121;SDS011;5615;49.304;10.576;2023-06-10T02:16:39;9.73;;;8.73;;
11121;SDS011;5615;49.304;10.576;2023-06-10T02:19:06;10.07;;;9.10;;
11121;SDS011;5615;49.304;10.576;2023-06-10T02:21:33;9.50;;;8.60;;
11121;SDS011;5615;49.304;10.576;2023-06-10T02:24:00;9.90;;;8.67;;
11121;SDS011;5615;49.304;10.576;2023-06-10T02:26:26;9.87;;;8.87;;
11121;SDS011;5615;49.304;10.576;2023-06-10T02:28:54;11.50;;;9.10;;
11121;SDS011;5615;49.304;10.576;2023-06-10T02:31:21;11.80;;;8.97;;
11121;SDS011;5615;49.304;10.576;2023-06-10T02:33:49;9.73;;;8.83;;
11121;SDS011;5615;49.304;10.576;2023-06-10T02:36:15;10.73;;;9.63;;
11121;SDS011;5615;49.304;10.576;2023-06-10T02:38:42;10.13;;;9.13;;
11121;SDS011;5615;49.304;10.576;2023-06-10T02:41:09;12.40;;;10.20;;
11121;SDS011;5615;49.304;10.576;2023-06-10T02:43:35;9.97;;;9.00;;
11121;SDS011;5615;49.304;10.576;2023-06-10T02:46:03;11.17;;;10.07;;
11121;SDS011;5615;49.304;10.576;2023-06-10T02:48:30;10.90;;;9.80;;
11121;SDS011;5615;49.304;10.576;2023-06-10T02:50:56;11.17;;;10.03;;
11121;SDS011;5615;49.304;10.576;2023-06-10T02:53:23;13.80;;;10.80;;
11121;SDS011;5615;49.304;10.576;2023-06-10T02:55:49;12.23;;;10.50;;
11121;SDS011;5615;49.304;10.576;2023-06-10T02:58:16;12.57;;;10.37;;
11121;SDS011;5615;49.304;10.576;2023-06-10T03:00:43;13.10;;;10.67;;
11121;SDS011;5615;49.304;10.576;2023-06-10T03:03:11;11.50;;;10.40;;
11121;SDS011;5615;49.304;10.576;2023-06-10T03:05:38;11.30;;;10.20;;
11121;SDS011;5615;49.304;10.576;2023-06-10T03:08:05;11.43;;;10.43;;
11121;SDS011;5615;49.304;10.576;2023-06-10T03:10:31;12.17;;;10.87;;
11121;SDS011;5615;49.304;10.576;2023-06-10T03:12:58;14.53;;;10.60;;
11121;SDS011;5615;49.304;10.576;2023-06-10T03:15:25;11.53;;;10.33;;
11121;SDS011;5615;49.304;10.576;2023-06-10T03:17:53;11.67;;;10.50;;
11121;SDS011;5615;49.304;10.576;2023-06-10T03:20:21;11.63;;;10.53;;
11121;SDS011;5615;49.304;10.576;2023-06-10T03:22:48;11.60;;;10.50;;
11121;SDS011;5615;49.304;10.576;2023-06-10T03:25:15;12.13;;;10.93;;
11121;SDS011;5615;49.304;10.576;2023-06-10T03:27:42;11.50;;;10.03;;
11121;SDS011;5615;49.304;10.576;2023-06-10T03:30:09;11.83;;;10.67;;
11121;SDS011;5615;49.304;10.576;2023-06-10T03:32:36;12.50;;;10.70;;
11121;SDS011;5615;49.304;10.576;2023-06-10T03:35:03;11.63;;;10.47;;
11121;SDS011;5615;49.304;10.576;2023-06-10T03:37:33;11.03;;;9.97;;
11121;SDS011;5615;49.304;10.576;2023-06-10T03:39:59;11.83;;;10.70;;
11121;SDS011;5615;49.304;10.576;2023-06-10T03:42:26;10.63;;;9.53;;
11121;SDS011;5615;49.304;10.576;2023-06-10T03:44:52;11.60;;;10.37;;
11121;SDS011;5615;49.304;10.576;2023-06-10T03:47:20;10.93;;;9.93;;
11121;SDS011;5615;49.304;10.576;2023-06-10T03:49:47;11.30;;;10.17;;
11121;SDS011;5615;49.304;10.576;2023-06-10T03:52:13;11.70;;;10.47;;
11121;SDS011;5615;49.304;10.576;2023-06-10T03:54:41;11.30;;;10.20;;
11121;SDS011;5615;49.304;10.576;2023-06-10T03:57:08;11.90;;;10.77;;
11121;SDS011;5615;49.304;10.576;2023-06-10T03:59:34;12.17;;;10.60;;
11121;SDS011;5615;49.304;10.576;2023-06-10T04:02:01;11.33;;;10.20;;
11121;SDS011;5615;49.304;10.576;2023-06-10T04:04:29;22.03;;;11.70;;
11121;SDS011;5615;49.304;10.576;2023-06-10T04:06:56;28.00;;;11.47;;
11121;SDS011;5615;49.304;10.576;2023-06-10T04:09:23;28.27;;;11.13;;
11121;SDS011;5615;49.304;10.576;2023-06-10T04:11:51;22.93;;;11.33;;
11121;SDS011;5615;49.304;10.576;2023-06-10T04:14:17;14.33;;;10.23;;
11121;SDS011;5615;49.304;10.576;2023-06-10T04:16:44;15.57;;;11.00;;
11121;SDS011;5615;49.304;10.576;2023-06-10T04:19:10;16.20;;;10.70;;
11121;SDS011;5615;49.304;10.576;2023-06-10T04:21:37;17.97;;;10.43;;
11121;SDS011;5615;49.304;10.576;2023-06-10T04:24:04;16.83;;;10.70;;
11121;SDS011;5615;49.304;10.576;2023-06-10T04:26:31;20.70;;;10.87;;
11121;SDS011;5615;49.304;10.576;2023-06-10T04:29:00;23.40;;;10.77;;
11121;SDS011;5615;49.304;10.576;2023-06-10T04:31:26;14.07;;;10.17;;
11121;SDS011;5615;49.304;10.576;2023-06-10T04:33:53;15.40;;;10.70;;
11121;SDS011;5615;49.304;10.576;2023-06-10T04:36:20;14.83;;;10.10;;
11121;SDS011;5615;49.304;10.576;2023-06-10T04:38:46;14.93;;;9.60;;
11121;SDS011;5615;49.304;10.576;2023-06-10T04:41:13;13.90;;;10.60;;
11121;SDS011;5615;49.304;10.576;2023-06-10T04:43:40;16.50;;;9.70;;
11121;SDS011;5615;49.304;10.576;2023-06-10T04:46:08;12.50;;;10.50;;
11121;SDS011;5615;49.304;10.576;2023-06-10T04:48:35;12.07;;;9.63;;
11121;SDS011;5615;49.304;10.576;2023-06-10T04:51:02;9.20;;;8.30;;
11121;SDS011;5615;49.304;10.576;2023-06-10T04:53:30;15.88;;;10.90;;
11121;SDS011;5615;49.304;10.576;2023-06-10T04:55:57;10.65;;;9.50;;
11121;SDS011;5615;49.304;10.576;2023-06-10T04:58:23;11.23;;;9.90;;
11121;SDS011;5615;49.304;10.576;2023-06-10T05:00:50;10.23;;;8.88;;
11121;SDS011;5615;49.304;10.576;2023-06-10T05:03:18;9.55;;;8.55;;
11121;SDS011;5615;49.304;10.576;2023-06-10T05:05:45;11.02;;;9.55;;
11121;SDS011;5615;49.304;10.576;2023-06-10T05:08:11;9.70;;;8.80;;
11121;SDS011;5615;49.304;10.576;2023-06-10T05:10:38;9.95;;;9.05;;
11121;SDS011;5615;49.304;10.576;2023-06-10T05:13:05;11.85;;;9.27;;
11121;SDS011;5615;49.304;10.576;2023-06-10T05:15:31;11.68;;;8.68;;
11121;SDS011;5615;49.304;10.576;2023-06-10T05:17:58;9.45;;;8.63;;
11121;SDS011;5615;49.304;10.576;2023-06-10T05:20:26;9.00;;;8.20;;
11121;SDS011;5615;49.304;10.576;2023-06-10T05:22:53;8.90;;;8.10;;
11121;SDS011;5615;49.304;10.576;2023-06-10T05:25:20;8.90;;;8.00;;
11121;SDS011;5615;49.304;10.576;2023-06-10T05:27:47;9.80;;;8.90;;
11121;SDS011;5615;49.304;10.576;2023-06-10T05:30:13;10.15;;;9.20;;
11121;SDS011;5615;49.304;10.576;2023-06-10T05:32:40;11.27;;;8.23;;
11121;SDS011;5615;49.304;10.576;2023-06-10T05:35:06;9.10;;;8.20;;
11121;SDS011;5615;49.304;10.576;2023-06-10T05:37:35;13.30;;;8.77;;
11121;SDS011;5615;49.304;10.576;2023-06-10T05:40:02;8.90;;;7.82;;
11121;SDS011;5615;49.304;10.576;2023-06-10T05:42:30;10.60;;;9.57;;
11121;SDS011;5615;49.304;10.576;2023-06-10T05:44:56;9.20;;;8.32;;
11121;SDS011;5615;49.304;10.576;2023-06-10T05:47:23;8.82;;;8.13;;
11121;SDS011;5615;49.304;10.576;2023-06-10T05:49:50;8.52;;;7.72;;
11121;SDS011;5615;49.304;10.576;2023-06-10T05:52:16;8.23;;;7.57;;
11121;SDS011;5615;49.304;10.576;2023-06-10T05:54:45;7.72;;;7.05;;
11121;SDS011;5615;49.304;10.576;2023-06-10T05:57:11;7.80;;;7.10;;
11121;SDS011;5615;49.304;10.576;2023-06-10T05:59:38;8.38;;;7.53;;
11121;SDS011;5615;49.304;10.576;2023-06-10T06:02:05;8.45;;;7.65;;
11121;SDS011;5615;49.304;10.576;2023-06-10T06:04:32;8.10;;;7.35;;
11121;SDS011;5615;49.304;10.576;2023-06-10T06:06:58;8.02;;;7.22;;
11121;SDS011;5615;49.304;10.576;2023-06-10T06:09:25;7.57;;;6.95;;
11121;SDS011;5615;49.304;10.576;2023-06-10T06:11:53;7.88;;;6.90;;
11121;SDS011;5615;49.304;10.576;2023-06-10T06:14:20;8.75;;;7.88;;
11121;SDS011;5615;49.304;10.576;2023-06-10T06:16:46;8.55;;;7.75;;
11121;SDS011;5615;49.304;10.576;2023-06-10T06:19:13;8.13;;;7.43;;
11121;SDS011;5615;49.304;10.576;2023-06-10T06:21:40;7.75;;;7.05;;
11121;SDS011;5615;49.304;10.576;2023-06-10T06:24:07;8.23;;;7.43;;
11121;SDS011;5615;49.304;10.576;2023-06-10T06:26:34;7.97;;;7.25;;
11121;SDS011;5615;49.304;10.576;2023-06-10T06:29:01;7.75;;;6.93;;
11121;SDS011;5615;49.304;10.576;2023-06-10T06:31:28;9.15;;;7.20;;
11121;SDS011;5615;49.304;10.576;2023-06-10T06:33:55;7.90;;;7.10;;
11121;SDS011;5615;49.304;10.576;2023-06-10T06:36:21;7.88;;;7.10;;
11121;SDS011;5615;49.304;10.576;2023-06-10T06:38:48;7.60;;;7.00;;
11121;SDS011;5615;49.304;10.576;2023-06-10T06:41:14;7.45;;;6.85;;
11121;SDS011;5615;49.304;10.576;2023-06-10T06:43:41;7.93;;;7.30;;
11121;SDS011;5615;49.304;10.576;2023-06-10T06:46:09;8.15;;;7.30;;
11121;SDS011;5615;49.304;10.576;2023-06-10T06:48:36;8.07;;;7.38;;
11121;SDS011;5615;49.304;10.576;2023-06-10T06:51:02;8.82;;;7.93;;
11121;SDS011;5615;49.304;10.576;2023-06-10T06:53:29;7.88;;;7.03;;
11121;SDS011;5615;49.304;10.576;2023-06-10T06:55:55;8.07;;;7.38;;
11121;SDS011;5615;49.304;10.576;2023-06-10T06:58:22;7.20;;;6.60;;
11121;SDS011;5615;49.304;10.576;2023-06-10T07:00:49;7.57;;;6.78;;
11121;SDS011;5615;49.304;10.576;2023-06-10T07:03:17;7.95;;;7.35;;
11121;SDS011;5615;49.304;10.576;2023-06-10T07:05:43;7.65;;;6.85;;
11121;SDS011;5615;49.304;10.576;2023-06-10T07:08:10;7.90;;;7.10;;
11121;SDS011;5615;49.304;10.576;2023-06-10T07:10:37;7.45;;;6.75;;
11121;SDS011;5615;49.304;10.576;2023-06-10T07:13:03;6.93;;;6.10;;
11121;SDS011;5615;49.304;10.576;2023-06-10T07:15:30;7.47;;;6.75;;
11121;SDS011;5615;49.304;10.576;2023-06-10T07:17:57;7.90;;;6.30;;
11121;SDS011;5615;49.304;10.576;2023-06-10T07:20:25;8.23;;;6.30;;
11121;SDS011;5615;49.304;10.576;2023-06-10T07:22:52;8.15;;;6.82;;
11121;SDS011;5615;49.304;10.576;2023-06-10T07:25:18;7.20;;;6.60;;
11121;SDS011;5615;49.304;10.576;2023-06-10T07:27:45;7.18;;;6.43;;
11121;SDS011;5615;49.304;10.576;2023-06-10T07:30:12;8.45;;;6.55;;
11121;SDS011;5615;49.304;10.576;2023-06-10T07:32:39;6.57;;;5.97;;
11121;SDS011;5615;49.304;10.576;2023-06-10T07:35:07;6.63;;;5.97;;
11121;SDS011;5615;49.304;10.576;2023-06-10T07:37:36;7.28;;;6.50;;
11121;SDS011;5615;49.304;10.576;2023-06-10T07:40:03;6.65;;;6.05;;
11121;SDS011;5615;49.304;10.576;2023-06-10T07:42:30;6.72;;;6.15;;
11121;SDS011;5615;49.304;10.576;2023-06-10T07:44:58;6.68;;;6.07;;
11121;SDS011;5615;49.304;10.576;2023-06-10T07:47:24;6.80;;;6.07;;
11121;SDS011;5615;49.304;10.576;2023-06-10T07:49:51;7.55;;;6.75;;
11121;SDS011;5615;49.304;10.576;2023-06-10T07:52:18;7.30;;;6.70;;
11121;SDS011;5615;49.304;10.576;2023-06-10T07:54:46;7.47;;;6.68;;
11121;SDS011;5615;49.304;10.576;2023-06-10T07:57:12;6.88;;;6.28;;
11121;SDS011;5615;49.304;10.576;2023-06-10T07:59:39;8.70;;;6.10;;
11121;SDS011;5615;49.304;10.576;2023-06-10T08:02:05;6.82;;;6.18;;
11121;SDS011;5615;49.304;10.576;2023-06-10T08:04:32;6.72;;;6.13;;
11121;SDS011;5615;49.304;10.576;2023-06-10T08:07:00;7.05;;;6.22;;
11121;SDS011;5615;49.304;10.576;2023-06-10T08:09:27;6.65;;;5.90;;
11121;SDS011;5615;49.304;10.576;2023-06-10T08:11:55;6.78;;;6.20;;
11121;SDS011;5615;49.304;10.576;2023-06-10T08:14:21;6.78;;;6.18;;
11121;SDS011;5615;49.304;10.576;2023-06-10T08:16:48;7.32;;;6.63;;
11121;SDS011;5615;49.304;10.576;2023-06-10T08:19:15;7.93;;;7.10;;
11121;SDS011;5615;49.304;10.576;2023-06-10T08:21:41;8.77;;;6.80;;
11121;SDS011;5615;49.304;10.576;2023-06-10T08:24:08;8.65;;;7.85;;
11121;SDS011;5615;49.304;10.576;2023-06-10T08:26:35;8.50;;;7.72;;
11121;SDS011;5615;49.304;10.576;2023-06-10T08:29:03;7.90;;;7.30;;
11121;SDS011;5615;49.304;10.576;2023-06-10T08:31:30;8.68;;;7.97;;
11121;SDS011;5615;49.304;10.576;2023-06-10T08:33:57;8.60;;;7.72;;
11121;SDS011;5615;49.304;10.576;2023-06-10T08:36:23;9.73;;;8.40;;
11121;SDS011;5615;49.304;10.576;2023-06-10T08:38:50;9.02;;;8.20;;
11121;SDS011;5615;49.304;10.576;2023-06-10T08:41:17;9.55;;;8.55;;
11121;SDS011;5615;49.304;10.576;2023-06-10T08:43:46;9.82;;;8.70;;
11121;SDS011;5615;49.304;10.576;2023-06-10T08:46:21;12.88;;;8.55;;
11121;SDS011;5615;49.304;10.576;2023-06-10T08:48:48;8.85;;;8.05;;
11121;SDS011;5615;49.304;10.576;2023-06-10T08:51:20;9.25;;;8.35;;
11121;SDS011;5615;49.304;10.576;2023-06-10T08:53:50;8.30;;;7.60;;
11121;SDS011;5615;49.304;10.576;2023-06-10T08:56:24;8.35;;;7.65;;
11121;SDS011;5615;49.304;10.576;2023-06-10T08:58:52;8.80;;;7.95;;
11121;SDS011;5615;49.304;10.576;2023-06-10T09:01:18;8.02;;;7.38;;
11121;SDS011;5615;49.304;10.576;2023-06-10T09:03:47;7.95;;;7.15;;
11121;SDS011;5615;49.304;10.576;2023-06-10T09:06:15;7.68;;;7.07;;
11121;SDS011;5615;49.304;10.576;2023-06-10T09:08:42;7.55;;;6.88;;
11121;SDS011;5615;49.304;10.576;2023-06-10T09:11:09;7.28;;;6.40;;
11121;SDS011;5615;49.304;10.576;2023-06-10T09:13:36;6.65;;;6.00;;
11121;SDS011;5615;49.304;10.576;2023-06-10T09:16:02;8.88;;;5.38;;
11121;SDS011;5615;49.304;10.576;2023-06-10T09:18:29;6.50;;;6.00;;
11121;SDS011;5615;49.304;10.576;2023-06-10T09:20:59;6.07;;;5.57;;
11121;SDS011;5615;49.304;10.576;2023-06-10T09:23:26;6.03;;;5.40;;
11121;SDS011;5615;49.304;10.576;2023-06-10T09:25:56;6.72;;;6.13;;
11121;SDS011;5615;49.304;10.576;2023-06-10T09:28:23;6.00;;;5.50;;
11121;SDS011;5615;49.304;10.576;2023-06-10T09:30:50;5.45;;;5.05;;
11121;SDS011;5615;49.304;10.576;2023-06-10T09:33:28;11.18;;;6.80;;
11121;SDS011;5615;49.304;10.576;2023-06-10T09:35:54;6.47;;;5.88;;
11121;SDS011;5615;49.304;10.576;2023-06-10T09:38:29;7.03;;;6.40;;
11121;SDS011;5615;49.304;10.576;2023-06-10T09:40:56;7.93;;;5.85;;
11121;SDS011;5615;49.304;10.576;2023-06-10T09:43:24;6.55;;;5.97;;
11121;SDS011;5615;49.304;10.576;2023-06-10T09:46:05;5.55;;;4.80;;
11121;SDS011;5615;49.304;10.576;2023-06-10T09:48:34;7.60;;;4.65;;
11121;SDS011;5615;49.304;10.576;2023-06-10T09:51:01;5.10;;;4.60;;
11121;SDS011;5615;49.304;10.576;2023-06-10T09:53:29;5.25;;;4.70;;
11121;SDS011;5615;49.304;10.576;2023-06-10T09:55:59;4.95;;;4.55;;
11121;SDS011;5615;49.304;10.576;2023-06-10T09:58:33;4.93;;;4.45;;
11121;SDS011;5615;49.304;10.576;2023-06-10T10:01:04;5.28;;;4.88;;
11121;SDS011;5615;49.304;10.576;2023-06-10T10:03:31;5.80;;;4.35;;
11121;SDS011;5615;49.304;10.576;2023-06-10T10:05:58;4.43;;;4.10;;
11121;SDS011;5615;49.304;10.576;2023-06-10T10:08:25;5.10;;;4.60;;
11121;SDS011;5615;49.304;10.576;2023-06-10T10:10:53;4.60;;;4.07;;
11121;SDS011;5615;49.304;10.576;2023-06-10T10:13:21;4.70;;;4.30;;
11121;SDS011;5615;49.304;10.576;2023-06-10T10:15:49;5.20;;;4.38;;
11121;SDS011;5615;49.304;10.576;2023-06-10T10:18:16;5.10;;;4.65;;
11121;SDS011;5615;49.304;10.576;2023-06-10T10:20:49;4.88;;;4.47;;
11121;SDS011;5615;49.304;10.576;2023-06-10T10:23:18;4.78;;;4.38;;
11121;SDS011;5615;49.304;10.576;2023-06-10T10:25:49;4.68;;;4.28;;
11121;SDS011;5615;49.304;10.576;2023-06-10T10:28:21;4.82;;;4.20;;
11121;SDS011;5615;49.304;10.576;2023-06-10T10:30:52;4.97;;;4.43;;
11121;SDS011;5615;49.304;10.576;2023-06-10T10:33:26;4.30;;;4.00;;
11121;SDS011;5615;49.304;10.576;2023-06-10T10:35:57;6.25;;;4.40;;
11121;SDS011;5615;49.304;10.576;2023-06-10T10:38:24;4.30;;;3.90;;
11121;SDS011;5615;49.304;10.576;2023-06-10T10:40:51;4.00;;;3.58;;
11121;SDS011;5615;49.304;10.576;2023-06-10T10:43:22;6.38;;;3.88;;
11121;SDS011;5615;49.304;10.576;2023-06-10T10:45:57;4.45;;;3.72;;
11121;SDS011;5615;49.304;10.576;2023-06-10T10:48:24;3.88;;;3.47;;
11121;SDS011;5615;49.304;10.576;2023-06-10T10:50:56;3.40;;;3.10;;
11121;SDS011;5615;49.304;10.576;2023-06-10T10:53:23;3.85;;;3.55;;
11121;SDS011;5615;49.304;10.576;2023-06-10T10:55:57;4.28;;;3.88;;
11121;SDS011;5615;49.304;10.576;2023-06-10T10:58:26;4.25;;;3.85;;
11121;SDS011;5615;49.304;10.576;2023-06-10T11:00:53;4.40;;;3.45;;
11121;SDS011;5615;49.304;10.576;2023-06-10T11:03:19;4.18;;;3.78;;
11121;SDS011;5615;49.304;10.576;2023-06-10T11:05:46;4.07;;;3.78;;
11121;SDS011;5615;49.304;10.576;2023-06-10T11:08:14;4.15;;;3.80;;
11121;SDS011;5615;49.304;10.576;2023-06-10T11:10:50;3.95;;;3.50;;
11121;SDS011;5615;49.304;10.576;2023-06-10T11:13:18;4.32;;;3.92;;
11121;SDS011;5615;49.304;10.576;2023-06-10T11:15:47;4.53;;;3.90;;
11121;SDS011;5615;49.304;10.576;2023-06-10T11:18:19;3.90;;;3.60;;
11121;SDS011;5615;49.304;10.576;2023-06-10T11:20:51;4.38;;;4.07;;
11121;SDS011;5615;49.304;10.576;2023-06-10T11:23:30;5.30;;;3.80;;
11121;SDS011;5615;49.304;10.576;2023-06-10T11:26:13;4.97;;;3.80;;
11121;SDS011;5615;49.304;10.576;2023-06-10T11:28:42;4.82;;;4.05;;
11121;SDS011;5615;49.304;10.576;2023-06-10T11:31:37;4.50;;;4.10;;
11121;SDS011;5615;49.304;10.576;2023-06-10T11:34:06;4.22;;;3.92;;
11121;SDS011;5615;49.304;10.576;2023-06-10T11:36:34;4.35;;;3.97;;
11121;SDS011;5615;49.304;10.576;2023-06-10T11:39:05;6.18;;;3.88;;
11121;SDS011;5615;49.304;10.576;2023-06-10T11:41:32;4.25;;;3.65;;
11121;SDS011;5615;49.304;10.576;2023-06-10T11:44:00;5.15;;;3.90;;
11121;SDS011;5615;49.304;10.576;2023-06-10T11:46:28;3.97;;;3.70;;
11121;SDS011;5615;49.304;10.576;2023-06-10T11:48:58;4.40;;;4.00;;
11121;SDS011;5615;49.304;10.576;2023-06-10T11:51:25;4.30;;;3.90;;
11121;SDS011;5615;49.304;10.576;2023-06-10T11:53:53;6.22;;;4.10;;
11121;SDS011;5615;49.304;10.576;2023-06-10T11:56:20;4.22;;;3.90;;
11121;SDS011;5615;49.304;10.576;2023-06-10T11:58:51;4.13;;;3.83;;
11121;SDS011;5615;49.304;10.576;2023-06-10T12:01:20;4.60;;;4.03;;
11121;SDS011;5615;49.304;10.576;2023-06-10T12:03:48;4.82;;;4.35;;
11121;SDS011;5615;49.304;10.576;2023-06-10T12:06:23;6.47;;;5.13;;
11121;SDS011;5615;49.304;10.576;2023-06-10T12:08:50;4.97;;;4.60;;
11121;SDS011;5615;49.304;10.576;2023-06-10T12:11:17;5.40;;;4.90;;
11121;SDS011;5615;49.304;10.576;2023-06-10T12:13:45;4.50;;;4.20;;
11121;SDS011;5615;49.304;10.576;2023-06-10T12:16:14;4.93;;;4.47;;
11121;SDS011;5615;49.304;10.576;2023-06-10T12:18:42;5.28;;;4.88;;
11121;SDS011;5615;49.304;10.576;2023-06-10T12:21:18;4.57;;;4.28;;
11121;SDS011;5615;49.304;10.576;2023-06-10T12:24:06;6.68;;;4.75;;
11121;SDS011;5615;49.304;10.576;2023-06-10T12:26:34;4.95;;;4.55;;
11121;SDS011;5615;49.304;10.576;2023-06-10T12:29:02;4.97;;;4.50;;
11121;SDS011;5615;49.304;10.576;2023-06-10T12:31:51;4.80;;;4.40;;
11121;SDS011;5615;49.304;10.576;2023-06-10T12:34:18;7.10;;;4.25;;
11121;SDS011;5615;49.304;10.576;2023-06-10T12:36:48;4.80;;;4.40;;
11121;SDS011;5615;49.304;10.576;2023-06-10T12:39:15;4.65;;;4.25;;
11121;SDS011;5615;49.304;10.576;2023-06-10T12:41:46;4.28;;;3.97;;
11121;SDS011;5615;49.304;10.576;2023-06-10T12:44:13;4.35;;;4.00;;
11121;SDS011;5615;49.304;10.576;2023-06-10T12:46:40;4.55;;;4.13;;
11121;SDS011;5615;49.304;10.576;2023-06-10T12:49:06;4.43;;;4.03;;
11121;SDS011;5615;49.304;10.576;2023-06-10T12:51:34;4.53;;;3.72;;
11121;SDS011;5615;49.304;10.576;2023-06-10T12:54:03;5.10;;;3.70;;
11121;SDS011;5615;49.304;10.576;2023-06-10T12:56:30;3.92;;;3.63;;
11121;SDS011;5615;49.304;10.576;2023-06-10T12:58:56;3.85;;;3.55;;
11121;SDS011;5615;49.304;10.576;2023-06-10T13:01:23;3.60;;;3.40;;
11121;SDS011;5615;49.304;10.576;2023-06-10T13:03:50;4.00;;;3.70;;
11121;SDS011;5615;49.304;10.576;2023-06-10T13:06:17;3.83;;;3.53;;
11121;SDS011;5615;49.304;10.576;2023-06-10T13:08:45;4.03;;;3.78;;
11121;SDS011;5615;49.304;10.576;2023-06-10T13:11:13;4.35;;;4.05;;
11121;SDS011;5615;49.304;10.576;2023-06-10T13:13:40;4.80;;;3.90;;
11121;SDS011;5615;49.304;10.576;2023-06-10T13:16:07;3.90;;;3.70;;
11121;SDS011;5615;49.304;10.576;2023-06-10T13:18:34;4.05;;;3.65;;
11121;SDS011;5615;49.304;10.576;2023-06-10T13:21:03;4.53;;;4.20;;
11121;SDS011;5615;49.304;10.576;2023-06-10T13:23:29;4.72;;;4.32;;
11121;SDS011;5615;49.304;10.576;2023-06-10T13:25:57;4.43;;;4.13;;
11121;SDS011;5615;49.304;10.576;2023-06-10T13:28:25;4.32;;;4.03;;
11121;SDS011;5615;49.304;10.576;2023-06-10T13:30:51;4.18;;;3.88;;
11121;SDS011;5615;49.304;10.576;2023-06-10T13:33:18;4.28;;;3.90;;
11121;SDS011;5615;49.304;10.576;2023-06-10T13:35:46;3.80;;;3.53;;
11121;SDS011;5615;49.304;10.576;2023-06-10T13:38:13;4.18;;;3.88;;
11121;SDS011;5615;49.304;10.576;2023-06-10T13:40:39;4.13;;;3.83;;
11121;SDS011;5615;49.304;10.576;2023-06-10T13:43:06;5.13;;;3.75;;
11121;SDS011;5615;49.304;10.576;2023-06-10T13:45:35;3.83;;;3.63;;
11121;SDS011;5615;49.304;10.576;2023-06-10T13:48:02;4.07;;;3.78;;
11121;SDS011;5615;49.304;10.576;2023-06-10T13:50:30;4.47;;;4.18;;
11121;SDS011;5615;49.304;10.576;2023-06-10T13:52:57;4.20;;;3.90;;
11121;SDS011;5615;49.304;10.576;2023-06-10T13:55:24;4.70;;;4.18;;
11121;SDS011;5615;49.304;10.576;2023-06-10T13:57:50;4.22;;;3.92;;
11121;SDS011;5615;49.304;10.576;2023-06-10T14:00:17;4.13;;;3.83;;
11121;SDS011;5615;49.304;10.576;2023-06-10T14:02:46;4.53;;;4.10;;
11121;SDS011;5615;49.304;10.576;2023-06-10T14:05:13;4.32;;;4.03;;
11121;SDS011;5615;49.304;10.576;2023-06-10T14:07:40;4.90;;;4.50;;
11121;SDS011;5615;49.304;10.576;2023-06-10T14:10:07;4.18;;;3.83;;
11121;SDS011;5615;49.304;10.576;2023-06-10T14:12:35;4.38;;;4.03;;
11121;SDS011;5615;49.304;10.576;2023-06-10T14:15:01;3.92;;;3.63;;
11121;SDS011;5615;49.304;10.576;2023-06-10T14:17:28;3.72;;;3.53;;
11121;SDS011;5615;49.304;10.576;2023-06-10T14:19:56;5.57;;;3.55;;
11121;SDS011;5615;49.304;10.576;2023-06-10T14:22:23;4.28;;;3.88;;
11121;SDS011;5615;49.304;10.576;2023-06-10T14:24:50;3.90;;;3.60;;
11121;SDS011;5615;49.304;10.576;2023-06-10T14:27:16;4.20;;;3.80;;
11121;SDS011;5615;49.304;10.576;2023-06-10T14:29:43;5.53;;;4.20;;
11121;SDS011;5615;49.304;10.576;2023-06-10T14:32:10;4.32;;;3.95;;
11121;SDS011;5615;49.304;10.576;2023-06-10T14:34:36;5.05;;;4.45;;
11121;SDS011;5615;49.304;10.576;2023-06-10T14:37:05;4.38;;;4.05;;
11121;SDS011;5615;49.304;10.576;2023-06-10T14:39:33;4.20;;;3.90;;
11121;SDS011;5615;49.304;10.576;2023-06-10T14:41:59;5.10;;;4.35;;
11121;SDS011;5615;49.304;10.576;2023-06-10T14:44:26;4.32;;;4.03;;
11121;SDS011;5615;49.304;10.576;2023-06-10T14:46:52;5.00;;;4.32;;